createdAt,value
2019-03-23T00:01:02.326Z,0.00
2019-03-23T00:02:02.830Z,0.00
2019-03-23T00:03:03.360Z,0.00
2019-03-23T00:04:03.805Z,0.00
2019-03-23T00:05:04.268Z,0.00
2019-03-23T00:06:04.715Z,0.00
2019-03-23T00:07:05.241Z,0.00
2019-03-23T00:08:05.679Z,0.00
2019-03-23T00:09:07.159Z,0.00
2019-03-23T00:10:07.595Z,0.00
2019-03-23T00:11:08.082Z,0.00
2019-03-23T00:12:08.559Z,0.00
2019-03-23T00:13:09.019Z,0.00
2019-03-23T00:14:09.461Z,0.00
2019-03-23T00:15:09.916Z,0.00
2019-03-23T00:16:10.370Z,0.00
2019-03-23T00:17:10.938Z,0.00
2019-03-23T00:18:11.369Z,0.00
2019-03-23T00:19:11.813Z,12.00
2019-03-23T00:20:12.353Z,12.00
2019-03-23T00:21:12.789Z,0.00
2019-03-23T00:22:13.262Z,0.00
2019-03-23T00:23:13.707Z,0.00
2019-03-23T00:24:14.144Z,0.00
2019-03-23T00:25:14.592Z,0.00
2019-03-23T00:26:15.029Z,0.00
2019-03-23T00:27:15.650Z,0.00
2019-03-23T00:28:16.098Z,0.00
2019-03-23T00:29:16.542Z,0.00
2019-03-23T00:30:17.003Z,0.00
2019-03-23T00:31:17.460Z,0.00
2019-03-23T00:32:17.992Z,0.00
2019-03-23T00:33:18.435Z,0.00
2019-03-23T00:34:18.946Z,0.00
2019-03-23T00:35:19.758Z,0.00
2019-03-23T00:36:20.216Z,0.00
2019-03-23T00:37:20.706Z,0.00
2019-03-23T00:38:21.154Z,0.00
2019-03-23T00:39:21.604Z,0.00
2019-03-23T00:40:22.064Z,0.00
2019-03-23T00:41:22.524Z,0.00
2019-03-23T00:42:23.017Z,0.00
2019-03-23T00:43:23.515Z,0.00
2019-03-23T00:44:23.987Z,0.00
2019-03-23T00:45:24.448Z,0.00
2019-03-23T00:46:24.893Z,0.00
2019-03-23T00:47:25.379Z,0.00
2019-03-23T00:48:25.899Z,0.00
2019-03-23T00:49:26.346Z,0.00
2019-03-23T00:50:26.835Z,0.00
2019-03-23T00:51:27.279Z,0.00
2019-03-23T00:52:27.772Z,0.00
2019-03-23T00:53:28.219Z,0.00
2019-03-23T00:54:28.676Z,0.00
2019-03-23T00:55:29.121Z,0.00
2019-03-23T00:56:29.569Z,0.00
2019-03-23T00:57:30.038Z,0.00
2019-03-23T00:58:30.503Z,0.00
2019-03-23T00:59:30.960Z,0.00
2019-03-23T01:00:31.445Z,0.00
2019-03-23T01:01:31.889Z,0.00
2019-03-23T01:02:32.382Z,0.00
2019-03-23T01:03:32.833Z,0.00
2019-03-23T01:04:33.312Z,0.00
2019-03-23T01:05:33.778Z,0.00
2019-03-23T01:06:34.233Z,0.00
2019-03-23T01:07:34.968Z,0.00
2019-03-23T01:08:35.420Z,0.00
2019-03-23T01:09:35.868Z,0.00
2019-03-23T01:10:36.306Z,0.00
2019-03-23T01:11:37.042Z,0.00
2019-03-23T01:12:37.508Z,0.00
2019-03-23T01:13:38.017Z,0.00
2019-03-23T01:14:38.450Z,0.00
2019-03-23T01:15:38.965Z,0.00
2019-03-23T01:16:39.415Z,0.00
2019-03-23T01:17:39.917Z,0.00
2019-03-23T01:18:40.349Z,0.00
2019-03-23T01:19:40.818Z,0.00
2019-03-23T01:20:49.301Z,0.00
2019-03-23T01:21:47.667Z,0.00
2019-03-23T01:22:48.244Z,0.00
2019-03-23T01:23:48.687Z,0.00
2019-03-23T01:24:49.148Z,0.00
2019-03-23T01:25:49.577Z,0.00
2019-03-23T01:26:50.210Z,0.00
2019-03-23T01:27:50.677Z,0.00
2019-03-23T01:28:51.118Z,0.00
2019-03-23T01:29:51.553Z,0.00
2019-03-23T01:30:51.987Z,0.00
2019-03-23T01:31:52.468Z,0.00
2019-03-23T01:32:52.963Z,0.00
2019-03-23T01:33:53.407Z,0.00
2019-03-23T01:34:53.929Z,0.00
2019-03-23T01:35:55.465Z,0.00
2019-03-23T01:37:02.690Z,0.00
2019-03-23T01:38:02.414Z,0.00
2019-03-23T01:39:02.971Z,0.00
2019-03-23T01:40:03.478Z,0.00
2019-03-23T01:41:04.006Z,0.00
2019-03-23T01:42:04.451Z,0.00
2019-03-23T01:43:04.970Z,0.00
2019-03-23T01:44:05.403Z,0.00
2019-03-23T01:45:05.875Z,0.00
2019-03-23T01:46:06.307Z,0.00
2019-03-23T01:47:07.832Z,0.00
2019-03-23T01:48:08.294Z,0.00
2019-03-23T01:49:08.762Z,0.00
2019-03-23T01:50:09.203Z,0.00
2019-03-23T01:51:09.698Z,0.00
2019-03-23T01:52:10.135Z,0.00
2019-03-23T01:53:10.686Z,0.00
2019-03-23T01:54:11.122Z,0.00
2019-03-23T01:55:11.675Z,0.00
2019-03-23T01:56:12.112Z,0.00
2019-03-23T01:57:12.612Z,0.00
2019-03-23T01:58:13.068Z,0.00
2019-03-23T01:59:14.567Z,0.00
2019-03-23T02:00:15.016Z,0.00
2019-03-23T02:01:16.531Z,0.00
2019-03-23T02:02:16.964Z,0.00
2019-03-23T02:03:20.931Z,0.00
2019-03-23T02:04:21.369Z,0.00
2019-03-23T02:05:22.839Z,0.00
2019-03-23T02:06:23.289Z,0.00
2019-03-23T02:07:23.776Z,0.00
2019-03-23T02:08:24.239Z,0.00
2019-03-23T02:09:24.710Z,0.00
2019-03-23T02:10:25.151Z,0.00
2019-03-23T02:11:25.645Z,0.00
2019-03-23T02:12:26.079Z,0.00
2019-03-23T02:13:26.619Z,0.00
2019-03-23T02:14:27.057Z,0.00
2019-03-23T02:15:27.518Z,0.00
2019-03-23T02:16:27.980Z,0.00
2019-03-23T02:17:28.452Z,0.00
2019-03-23T02:18:28.916Z,0.00
2019-03-23T02:19:29.389Z,0.00
2019-03-23T02:20:29.826Z,0.00
2019-03-23T02:21:30.266Z,0.00
2019-03-23T02:22:31.764Z,0.00
2019-03-23T02:23:32.220Z,0.00
2019-03-23T02:24:32.772Z,0.00
2019-03-23T02:25:33.215Z,0.00
2019-03-23T02:26:33.707Z,0.00
2019-03-23T02:27:34.148Z,0.00
2019-03-23T02:28:34.672Z,0.00
2019-03-23T02:29:35.124Z,0.00
2019-03-23T02:30:35.703Z,0.00
2019-03-23T02:31:36.160Z,0.00
2019-03-23T02:32:36.713Z,0.00
2019-03-23T02:33:37.170Z,0.00
2019-03-23T02:34:37.654Z,0.00
2019-03-23T02:35:38.100Z,0.00
2019-03-23T02:36:38.584Z,0.00
2019-03-23T02:37:39.027Z,0.00
2019-03-23T02:38:39.549Z,0.00
2019-03-23T02:39:40.010Z,0.00
2019-03-23T02:40:41.481Z,0.00
2019-03-23T02:41:41.927Z,0.00
2019-03-23T02:42:42.546Z,0.00
2019-03-23T02:43:43.016Z,0.00
2019-03-23T02:44:43.568Z,0.00
2019-03-23T02:45:44.015Z,0.00
2019-03-23T02:46:44.490Z,0.00
2019-03-23T02:47:44.933Z,0.00
2019-03-23T02:48:45.457Z,0.00
2019-03-23T02:49:45.899Z,0.00
2019-03-23T02:50:46.364Z,0.00
2019-03-23T02:51:46.807Z,0.00
2019-03-23T02:52:47.401Z,0.00
2019-03-23T02:53:47.885Z,0.00
2019-03-23T02:54:49.371Z,0.00
2019-03-23T02:55:49.824Z,0.00
2019-03-23T02:56:50.291Z,0.00
2019-03-23T02:57:50.752Z,0.00
2019-03-23T02:58:51.265Z,0.00
2019-03-23T02:59:51.800Z,0.00
2019-03-23T03:00:52.428Z,0.00
2019-03-23T03:01:52.884Z,0.00
2019-03-23T03:02:53.406Z,0.00
2019-03-23T03:03:53.878Z,0.00
2019-03-23T03:04:54.344Z,0.00
2019-03-23T03:05:54.782Z,0.00
2019-03-23T03:06:55.275Z,0.00
2019-03-23T03:07:55.713Z,0.00
2019-03-23T03:08:56.262Z,0.00
2019-03-23T03:09:56.722Z,0.00
2019-03-23T03:10:59.189Z,0.00
2019-03-23T03:11:59.623Z,0.00
2019-03-23T03:13:01.149Z,0.00
2019-03-23T03:14:01.616Z,0.00
2019-03-23T03:15:02.090Z,0.00
2019-03-23T03:16:02.531Z,0.00
2019-03-23T03:17:03.013Z,0.00
2019-03-23T03:18:03.454Z,0.00
2019-03-23T03:19:06.036Z,0.00
2019-03-23T03:20:06.469Z,0.00
2019-03-23T03:21:06.937Z,0.00
2019-03-23T03:22:07.389Z,0.00
2019-03-23T03:23:28.859Z,0.00
2019-03-23T03:24:29.327Z,0.00
2019-03-23T03:25:29.795Z,0.00
2019-03-23T03:26:30.238Z,0.00
2019-03-23T03:27:30.741Z,0.00
2019-03-23T03:28:31.181Z,0.00
2019-03-23T03:29:31.700Z,0.00
2019-03-23T03:30:32.156Z,0.00
2019-03-23T03:31:32.705Z,0.00
2019-03-23T03:32:33.167Z,0.00
2019-03-23T03:33:33.645Z,0.00
2019-03-23T03:34:34.116Z,0.00
2019-03-23T03:35:34.578Z,0.00
2019-03-23T03:36:35.076Z,0.00
2019-03-23T03:37:36.643Z,0.00
2019-03-23T03:38:37.083Z,0.00
2019-03-23T03:39:37.611Z,0.00
2019-03-23T03:40:38.051Z,0.00
2019-03-23T03:41:38.612Z,0.00
2019-03-23T03:42:39.051Z,0.00
2019-03-23T03:43:39.556Z,0.00
2019-03-23T03:44:40.017Z,0.00
2019-03-23T03:45:40.485Z,0.00
2019-03-23T03:46:40.922Z,0.00
2019-03-23T03:47:43.491Z,0.00
2019-03-23T03:48:43.939Z,0.00
2019-03-23T03:49:45.462Z,0.00
2019-03-23T03:50:45.914Z,0.00
2019-03-23T03:51:53.424Z,0.00
2019-03-23T03:52:53.876Z,0.00
2019-03-23T03:53:54.361Z,0.00
2019-03-23T03:54:54.817Z,0.00
2019-03-23T03:55:55.309Z,0.00
2019-03-23T03:56:55.751Z,0.00
2019-03-23T03:57:56.235Z,0.00
2019-03-23T03:58:56.668Z,0.00
2019-03-23T03:59:57.278Z,0.00
2019-03-23T04:00:57.739Z,0.00
2019-03-23T04:01:58.210Z,0.00
2019-03-23T04:02:58.672Z,0.00
2019-03-23T04:03:59.150Z,0.00
2019-03-23T04:04:59.620Z,0.00
2019-03-23T04:06:00.081Z,0.00
2019-03-23T04:07:00.534Z,0.00
2019-03-23T04:08:11.161Z,0.00
2019-03-23T04:09:07.437Z,0.00
2019-03-23T04:10:08.031Z,0.00
2019-03-23T04:11:08.491Z,0.00
2019-03-23T04:12:09.032Z,0.00
2019-03-23T04:13:09.484Z,0.00
2019-03-23T04:14:09.963Z,0.00
2019-03-23T04:15:10.417Z,0.00
2019-03-23T04:16:11.001Z,0.00
2019-03-23T04:17:11.481Z,0.00
2019-03-23T04:18:12.056Z,0.00
2019-03-23T04:19:12.502Z,0.00
2019-03-23T04:20:13.014Z,0.00
2019-03-23T04:21:13.462Z,0.00
2019-03-23T04:22:14.016Z,0.00
2019-03-23T04:23:14.467Z,0.00
2019-03-23T04:24:14.953Z,0.00
2019-03-23T04:25:15.434Z,0.00
2019-03-23T04:26:15.965Z,0.00
2019-03-23T04:27:16.409Z,0.00
2019-03-23T04:28:16.844Z,0.00
2019-03-23T04:29:17.281Z,0.00
2019-03-23T04:30:17.844Z,0.00
2019-03-23T04:31:18.292Z,0.00
2019-03-23T04:32:18.865Z,0.00
2019-03-23T04:33:19.319Z,0.00
2019-03-23T04:34:19.780Z,0.00
2019-03-23T04:35:20.231Z,0.00
2019-03-23T04:36:20.680Z,0.00
2019-03-23T04:37:21.111Z,0.00
2019-03-23T04:38:23.118Z,0.00
2019-03-23T04:39:23.810Z,0.00
2019-03-23T04:40:24.264Z,0.00
2019-03-23T04:41:24.747Z,0.00
2019-03-23T04:42:25.190Z,0.00
2019-03-23T04:43:25.689Z,0.00
2019-03-23T04:44:26.152Z,0.00
2019-03-23T04:45:27.677Z,0.00
2019-03-23T04:46:28.119Z,0.00
2019-03-23T04:47:28.583Z,0.00
2019-03-23T04:48:29.022Z,0.00
2019-03-23T04:49:29.514Z,0.00
2019-03-23T04:50:29.963Z,0.00
2019-03-23T04:51:31.474Z,0.00
2019-03-23T04:52:31.905Z,0.00
2019-03-23T04:53:33.438Z,0.00
2019-03-23T04:54:33.886Z,0.00
2019-03-23T04:55:34.407Z,0.00
2019-03-23T04:56:34.848Z,0.00
2019-03-23T04:57:36.331Z,0.00
2019-03-23T04:58:36.767Z,0.00
2019-03-23T04:59:37.267Z,0.00
2019-03-23T05:00:37.772Z,0.00
2019-03-23T05:01:44.858Z,0.00
2019-03-23T05:02:45.367Z,0.00
2019-03-23T05:03:45.902Z,4.00
2019-03-23T05:04:46.466Z,0.00
2019-03-23T05:05:46.963Z,0.00
2019-03-23T05:06:47.423Z,0.00
2019-03-23T05:07:47.973Z,4.00
2019-03-23T05:08:48.419Z,0.00
2019-03-23T05:10:03.957Z,4.00
2019-03-23T05:11:04.410Z,4.00
2019-03-23T05:12:12.856Z,4.00
2019-03-23T05:13:13.294Z,4.00
2019-03-23T05:14:13.739Z,8.00
2019-03-23T05:15:14.177Z,8.00
2019-03-23T05:16:14.644Z,12.00
2019-03-23T05:17:15.141Z,16.00
2019-03-23T05:18:15.576Z,16.00
2019-03-23T05:19:16.080Z,16.00
2019-03-23T05:20:16.531Z,20.00
2019-03-23T05:21:17.041Z,24.00
2019-03-23T05:22:17.477Z,28.00
2019-03-23T05:23:17.949Z,24.00
2019-03-23T05:24:18.423Z,24.00
2019-03-23T05:25:19.907Z,28.00
2019-03-23T05:26:20.358Z,32.00
2019-03-23T05:27:21.863Z,32.00
2019-03-23T05:28:22.303Z,32.00
2019-03-23T05:29:22.801Z,40.00
2019-03-23T05:30:23.241Z,36.00
2019-03-23T05:31:23.772Z,40.00
2019-03-23T05:32:24.213Z,44.00
2019-03-23T05:33:24.684Z,48.00
2019-03-23T05:34:25.159Z,56.00
2019-03-23T05:35:25.601Z,56.00
2019-03-23T05:36:26.453Z,68.00
2019-03-23T05:37:26.907Z,80.00
2019-03-23T05:38:27.355Z,80.00
2019-03-23T05:39:27.891Z,88.00
2019-03-23T05:40:28.375Z,84.00
2019-03-23T05:41:30.856Z,92.00
2019-03-23T05:42:31.418Z,92.00
2019-03-23T05:43:31.911Z,104.00
2019-03-23T05:44:32.395Z,104.00
2019-03-23T05:45:32.852Z,112.00
2019-03-23T05:46:33.320Z,112.00
2019-03-23T05:47:33.810Z,124.00
2019-03-23T05:48:41.958Z,136.00
2019-03-23T05:49:42.421Z,152.00
2019-03-23T05:50:42.894Z,168.00
2019-03-23T05:51:51.388Z,168.00
2019-03-23T05:52:51.869Z,172.00
2019-03-23T05:53:52.444Z,184.00
2019-03-23T05:54:52.888Z,176.00
2019-03-23T05:55:53.367Z,188.00
2019-03-23T05:56:53.826Z,204.00
2019-03-23T05:57:54.345Z,220.00
2019-03-23T05:58:54.781Z,232.00
2019-03-23T05:59:55.220Z,236.00
2019-03-23T06:00:55.684Z,228.00
2019-03-23T06:01:56.229Z,236.00
2019-03-23T06:02:56.676Z,240.00
2019-03-23T06:03:57.175Z,252.00
2019-03-23T06:04:57.614Z,236.00
2019-03-23T06:05:58.139Z,252.00
2019-03-23T06:06:58.591Z,284.00
2019-03-23T06:07:59.141Z,284.00
2019-03-23T06:08:59.578Z,268.00
2019-03-23T06:10:00.018Z,276.00
2019-03-23T06:11:00.531Z,280.00
2019-03-23T06:12:00.978Z,284.00
2019-03-23T06:13:01.523Z,324.00
2019-03-23T06:14:01.958Z,304.00
2019-03-23T06:15:02.465Z,284.00
2019-03-23T06:16:03.011Z,300.00
2019-03-23T06:17:03.493Z,356.00
2019-03-23T06:18:03.931Z,404.00
2019-03-23T06:19:05.451Z,424.00
2019-03-23T06:20:05.887Z,436.00
2019-03-23T06:21:08.370Z,472.00
2019-03-23T06:22:08.809Z,516.00
2019-03-23T06:23:09.265Z,536.00
2019-03-23T06:24:09.713Z,532.00
2019-03-23T06:25:10.202Z,532.00
2019-03-23T06:26:10.663Z,536.00
2019-03-23T06:27:11.226Z,516.00
2019-03-23T06:28:11.665Z,480.00
2019-03-23T06:29:12.159Z,476.00
2019-03-23T06:30:12.590Z,460.00
2019-03-23T06:31:14.151Z,440.00
2019-03-23T06:32:14.599Z,452.00
2019-03-23T06:33:15.158Z,436.00
2019-03-23T06:34:15.601Z,436.00
2019-03-23T06:35:16.089Z,480.00
2019-03-23T06:36:16.539Z,480.00
2019-03-23T06:37:17.056Z,468.00
2019-03-23T06:38:17.504Z,448.00
2019-03-23T06:39:17.957Z,472.00
2019-03-23T06:40:19.267Z,492.00
2019-03-23T06:41:19.757Z,492.00
2019-03-23T06:42:20.212Z,484.00
2019-03-23T06:43:20.754Z,444.00
2019-03-23T06:44:21.190Z,452.00
2019-03-23T06:45:21.680Z,480.00
2019-03-23T06:46:22.135Z,504.00
2019-03-23T06:47:22.575Z,536.00
2019-03-23T06:48:23.015Z,576.00
2019-03-23T06:49:23.471Z,560.00
2019-03-23T06:50:23.922Z,568.00
2019-03-23T06:51:24.407Z,556.00
2019-03-23T06:52:24.848Z,588.00
2019-03-23T06:53:25.628Z,604.00
2019-03-23T06:54:26.080Z,620.00
2019-03-23T06:55:26.522Z,648.00
2019-03-23T06:56:27.054Z,632.00
2019-03-23T06:57:27.500Z,668.00
2019-03-23T06:58:27.947Z,624.00
2019-03-23T06:59:28.414Z,664.00
2019-03-23T07:00:28.870Z,652.00
2019-03-23T07:01:29.356Z,620.00
2019-03-23T07:02:29.825Z,732.00
2019-03-23T07:03:30.347Z,820.00
2019-03-23T07:04:30.797Z,1004.00
2019-03-23T07:05:31.279Z,1128.00
2019-03-23T07:06:31.756Z,988.00
2019-03-23T07:07:32.552Z,960.00
2019-03-23T07:08:33.035Z,1032.00
2019-03-23T07:09:33.509Z,1136.00
2019-03-23T07:10:34.006Z,1116.00
2019-03-23T07:11:34.469Z,1108.00
2019-03-23T07:12:34.922Z,1052.00
2019-03-23T07:13:35.381Z,1080.00
2019-03-23T07:14:35.849Z,1136.00
2019-03-23T07:15:36.297Z,1188.00
2019-03-23T07:16:36.793Z,1280.00
2019-03-23T07:17:37.263Z,1148.00
2019-03-23T07:18:37.713Z,1240.00
2019-03-23T07:19:38.196Z,1348.00
2019-03-23T07:20:38.648Z,1348.00
2019-03-23T07:21:39.124Z,1332.00
2019-03-23T07:22:39.589Z,1268.00
2019-03-23T07:23:40.059Z,1360.00
2019-03-23T07:24:40.502Z,1468.00
2019-03-23T07:25:40.967Z,1636.00
2019-03-23T07:26:41.472Z,1644.00
2019-03-23T07:27:41.931Z,1592.00
2019-03-23T07:28:42.414Z,1740.00
2019-03-23T07:29:42.875Z,1828.00
2019-03-23T07:30:43.321Z,1976.00
2019-03-23T07:31:43.795Z,2004.00
2019-03-23T07:32:44.327Z,2100.00
2019-03-23T07:33:44.809Z,2136.00
2019-03-23T07:34:45.262Z,2060.00
2019-03-23T07:35:45.714Z,2064.00
2019-03-23T07:36:46.197Z,2068.00
2019-03-23T07:37:46.644Z,2068.00
2019-03-23T07:38:47.096Z,2244.00
2019-03-23T07:39:47.547Z,2336.00
2019-03-23T07:40:47.998Z,2368.00
2019-03-23T07:41:48.499Z,2224.00
2019-03-23T07:42:48.969Z,2384.00
2019-03-23T07:43:49.518Z,2488.00
2019-03-23T07:44:49.992Z,2160.00
2019-03-23T07:45:50.447Z,2000.00
2019-03-23T07:46:50.972Z,2020.00
2019-03-23T07:47:51.421Z,2068.00
2019-03-23T07:48:51.868Z,2028.00
2019-03-23T07:49:52.320Z,2116.00
2019-03-23T07:50:52.789Z,2560.00
2019-03-23T07:51:53.257Z,2500.00
2019-03-23T07:52:53.705Z,2236.00
2019-03-23T07:53:54.149Z,2048.00
2019-03-23T07:54:54.589Z,1884.00
2019-03-23T07:55:55.034Z,1788.00
2019-03-23T07:56:55.503Z,2080.00
2019-03-23T07:57:55.948Z,2512.00
2019-03-23T07:58:56.397Z,2492.00
2019-03-23T07:59:57.084Z,2480.00
2019-03-23T08:00:57.536Z,2500.00
2019-03-23T08:01:57.987Z,2500.00
2019-03-23T08:02:58.426Z,2752.00
2019-03-23T08:03:58.878Z,2660.00
2019-03-23T08:04:59.317Z,2416.00
2019-03-23T08:05:59.773Z,2244.00
2019-03-23T08:07:00.252Z,2324.00
2019-03-23T08:08:00.793Z,2440.00
2019-03-23T08:09:01.252Z,2576.00
2019-03-23T08:10:01.851Z,2624.00
2019-03-23T08:11:02.304Z,2684.00
2019-03-23T08:12:02.794Z,3072.00
2019-03-23T08:13:03.245Z,3012.00
2019-03-23T08:14:03.687Z,2988.00
2019-03-23T08:15:04.127Z,3332.00
2019-03-23T08:16:04.667Z,3316.00
2019-03-23T08:17:05.128Z,3208.00
2019-03-23T08:18:05.708Z,3256.00
2019-03-23T08:19:06.191Z,3364.00
2019-03-23T08:20:06.630Z,3376.00
2019-03-23T08:21:07.070Z,3440.00
2019-03-23T08:22:07.684Z,3452.00
2019-03-23T08:23:08.121Z,3660.00
2019-03-23T08:24:08.713Z,3496.00
2019-03-23T08:25:09.155Z,3320.00
2019-03-23T08:26:09.749Z,3316.00
2019-03-23T08:27:10.246Z,3452.00
2019-03-23T08:28:10.787Z,3428.00
2019-03-23T08:29:11.229Z,3412.00
2019-03-23T08:30:12.770Z,3396.00
2019-03-23T08:31:13.210Z,3336.00
2019-03-23T08:32:13.829Z,3084.00
2019-03-23T08:33:14.274Z,3028.00
2019-03-23T08:34:23.433Z,3064.00
2019-03-23T08:35:23.864Z,3092.00
2019-03-23T08:36:24.465Z,3064.00
2019-03-23T08:37:24.925Z,2992.00
2019-03-23T08:38:25.401Z,3232.00
2019-03-23T08:39:25.832Z,3256.00
2019-03-23T08:40:26.375Z,3088.00
2019-03-23T08:41:26.821Z,3052.00
2019-03-23T08:42:34.944Z,3004.00
2019-03-23T08:43:35.512Z,2888.00
2019-03-23T08:44:36.091Z,2852.00
2019-03-23T08:45:36.532Z,3004.00
2019-03-23T08:46:37.126Z,3344.00
2019-03-23T08:47:37.592Z,3352.00
2019-03-23T08:48:38.166Z,3180.00
2019-03-23T08:49:38.618Z,3320.00
2019-03-23T08:50:39.214Z,3668.00
2019-03-23T08:51:39.667Z,3464.00
2019-03-23T08:52:40.215Z,3476.00
2019-03-23T08:53:40.662Z,3516.00
2019-03-23T08:54:41.212Z,3412.00
2019-03-23T08:55:41.682Z,3592.00
2019-03-23T08:56:42.216Z,3820.00
2019-03-23T08:57:42.675Z,3880.00
2019-03-23T08:58:43.260Z,4148.00
2019-03-23T08:59:43.700Z,4096.00
2019-03-23T09:00:44.349Z,3896.00
2019-03-23T09:01:44.787Z,3996.00
2019-03-23T09:02:47.466Z,3800.00
2019-03-23T09:03:52.378Z,3732.00
2019-03-23T09:04:54.505Z,3864.00
2019-03-23T09:05:54.951Z,3948.00
2019-03-23T09:06:55.534Z,3868.00
2019-03-23T09:07:55.992Z,3900.00
2019-03-23T09:08:56.581Z,4052.00
2019-03-23T09:09:59.425Z,4508.00
2019-03-23T09:11:01.206Z,4560.00
2019-03-23T09:12:01.643Z,4428.00
2019-03-23T09:13:02.156Z,4320.00
2019-03-23T09:14:02.608Z,4316.00
2019-03-23T09:15:03.173Z,4692.00
2019-03-23T09:16:03.623Z,4776.00
2019-03-23T09:17:05.146Z,4716.00
2019-03-23T09:18:05.606Z,4840.00
2019-03-23T09:19:06.069Z,4832.00
2019-03-23T09:20:06.515Z,5160.00
2019-03-23T09:21:08.131Z,5564.00
2019-03-23T09:22:08.565Z,5040.00
2019-03-23T09:23:09.099Z,5352.00
2019-03-23T09:24:09.537Z,5392.00
2019-03-23T09:25:11.035Z,5908.00
2019-03-23T09:26:13.621Z,5836.00
2019-03-23T09:27:14.308Z,6012.00
2019-03-23T09:28:14.783Z,6472.00
2019-03-23T09:29:15.255Z,6188.00
2019-03-23T09:30:15.690Z,5800.00
2019-03-23T09:31:16.148Z,5864.00
2019-03-23T09:32:17.738Z,5832.00
2019-03-23T09:33:18.203Z,5940.00
2019-03-23T09:34:19.694Z,5628.00
2019-03-23T09:35:20.141Z,5320.00
2019-03-23T09:36:23.022Z,5348.00
2019-03-23T09:37:23.639Z,5520.00
2019-03-23T09:38:25.736Z,5884.00
2019-03-23T09:39:26.180Z,6184.00
2019-03-23T09:40:27.711Z,6320.00
2019-03-23T09:41:28.197Z,5944.00
2019-03-23T09:42:30.702Z,5872.00
2019-03-23T09:43:31.153Z,5344.00
2019-03-23T09:44:31.621Z,5092.00
2019-03-23T09:45:32.082Z,4960.00
2019-03-23T09:46:32.756Z,4984.00
2019-03-23T09:47:33.194Z,4828.00
2019-03-23T09:48:33.830Z,5044.00
2019-03-23T09:49:34.296Z,5624.00
2019-03-23T09:50:35.981Z,6192.00
2019-03-23T09:51:36.424Z,6208.00
2019-03-23T09:52:37.004Z,5996.00
2019-03-23T09:53:37.450Z,5868.00
2019-03-23T09:54:38.035Z,6044.00
2019-03-23T09:55:38.472Z,5964.00
2019-03-23T09:56:39.070Z,5924.00
2019-03-23T09:57:39.511Z,5968.00
2019-03-23T09:58:40.147Z,6400.00
2019-03-23T09:59:40.602Z,6524.00
2019-03-23T10:00:41.253Z,6664.00
2019-03-23T10:01:41.696Z,6964.00
2019-03-23T10:02:42.283Z,7444.00
2019-03-23T10:03:42.980Z,8120.00
2019-03-23T10:04:43.525Z,8368.00
2019-03-23T10:05:43.962Z,8220.00
2019-03-23T10:06:44.467Z,7688.00
2019-03-23T10:07:44.900Z,7104.00
2019-03-23T10:08:46.452Z,6612.00
2019-03-23T10:09:47.013Z,6088.00
2019-03-23T10:10:47.556Z,6044.00
2019-03-23T10:11:47.997Z,6368.00
2019-03-23T10:12:48.492Z,7104.00
2019-03-23T10:13:48.951Z,7168.00
2019-03-23T10:14:49.424Z,7280.00
2019-03-23T10:15:49.865Z,7804.00
2019-03-23T10:16:50.354Z,8252.00
2019-03-23T10:17:50.794Z,7420.00
2019-03-23T10:18:51.335Z,6944.00
2019-03-23T10:19:51.787Z,7012.00
2019-03-23T10:20:52.235Z,7588.00
2019-03-23T10:21:52.772Z,7968.00
2019-03-23T10:22:53.206Z,8292.00
2019-03-23T10:23:54.659Z,8380.00
2019-03-23T10:24:55.155Z,8248.00
2019-03-23T10:25:55.587Z,8732.00
2019-03-23T10:26:56.038Z,9052.00
2019-03-23T10:27:56.571Z,7792.00
2019-03-23T10:28:57.037Z,7112.00
2019-03-23T10:29:57.474Z,7292.00
2019-03-23T10:30:57.923Z,7248.00
2019-03-23T10:31:58.437Z,7524.00
2019-03-23T10:32:58.886Z,8268.00
2019-03-23T10:34:01.492Z,8848.00
2019-03-23T10:35:01.928Z,8520.00
2019-03-23T10:36:02.477Z,8856.00
2019-03-23T10:37:02.945Z,8592.00
2019-03-23T10:38:03.493Z,8320.00
2019-03-23T10:39:03.965Z,8060.00
2019-03-23T10:40:04.499Z,7368.00
2019-03-23T10:41:04.944Z,6568.00
2019-03-23T10:42:05.397Z,6928.00
2019-03-23T10:43:05.833Z,7628.00
2019-03-23T10:44:06.304Z,8348.00
2019-03-23T10:45:06.746Z,9848.00
2019-03-23T10:46:07.408Z,9812.00
2019-03-23T10:47:07.863Z,8260.00
2019-03-23T10:48:08.410Z,8552.00
2019-03-23T10:49:08.868Z,9124.00
2019-03-23T10:50:30.444Z,9448.00
2019-03-23T10:51:30.894Z,9468.00
2019-03-23T10:52:33.431Z,9960.00
2019-03-23T10:53:33.875Z,9336.00
2019-03-23T10:54:49.860Z,9400.00
2019-03-23T10:55:50.313Z,10136.00
2019-03-23T10:56:52.928Z,10904.00
2019-03-23T10:57:53.375Z,10360.00
2019-03-23T10:58:53.997Z,8420.00
2019-03-23T10:59:54.428Z,7968.00
2019-03-23T11:00:54.986Z,10204.00
2019-03-23T11:01:55.419Z,18080.00
2019-03-23T11:02:56.023Z,19776.00
2019-03-23T11:03:56.483Z,16832.00
2019-03-23T11:04:57.062Z,18752.00
2019-03-23T11:05:57.505Z,18816.00
2019-03-23T11:06:58.096Z,18240.00
2019-03-23T11:07:58.535Z,19808.00
2019-03-23T11:08:59.067Z,17952.00
2019-03-23T11:09:59.510Z,13488.00
2019-03-23T11:11:00.078Z,12916.00
2019-03-23T11:12:00.532Z,14788.00
2019-03-23T11:13:01.111Z,17664.00
2019-03-23T11:14:01.566Z,14868.00
2019-03-23T11:15:02.149Z,10332.00
2019-03-23T11:16:02.590Z,10240.00
2019-03-23T11:17:03.185Z,10068.00
2019-03-23T11:18:03.637Z,8424.00
2019-03-23T11:19:13.201Z,9252.00
2019-03-23T11:20:11.586Z,10136.00
2019-03-23T11:21:12.136Z,11876.00
2019-03-23T11:22:12.594Z,11836.00
2019-03-23T11:23:13.160Z,11640.00
2019-03-23T11:24:13.668Z,12652.00
2019-03-23T11:25:14.298Z,12360.00
2019-03-23T11:26:14.738Z,12308.00
2019-03-23T11:27:15.345Z,12280.00
2019-03-23T11:28:15.792Z,12396.00
2019-03-23T11:29:24.951Z,11824.00
2019-03-23T11:30:25.445Z,11452.00
2019-03-23T11:31:26.022Z,11640.00
2019-03-23T11:32:26.471Z,11612.00
2019-03-23T11:33:28.083Z,11624.00
2019-03-23T11:34:28.533Z,11576.00
2019-03-23T11:35:30.143Z,10556.00
2019-03-23T11:36:30.618Z,9944.00
2019-03-23T11:37:31.335Z,8268.00
2019-03-23T11:38:31.875Z,7716.00
2019-03-23T11:39:32.553Z,7924.00
2019-03-23T11:40:32.991Z,8064.00
2019-03-23T11:41:33.559Z,8280.00
2019-03-23T11:42:33.999Z,7648.00
2019-03-23T11:43:34.609Z,6652.00
2019-03-23T11:44:35.067Z,5952.00
2019-03-23T11:45:35.637Z,6164.00
2019-03-23T11:46:36.073Z,6608.00
2019-03-23T11:47:36.684Z,6776.00
2019-03-23T11:48:37.125Z,6908.00
2019-03-23T11:49:42.977Z,7052.00
2019-03-23T11:50:43.427Z,7480.00
2019-03-23T11:51:43.980Z,7896.00
2019-03-23T11:52:44.434Z,7912.00
2019-03-23T11:53:45.035Z,7364.00
2019-03-23T11:54:45.497Z,7000.00
2019-03-23T11:55:46.045Z,6928.00
2019-03-23T11:56:46.483Z,6752.00
2019-03-23T11:57:47.101Z,6748.00
2019-03-23T11:58:47.543Z,6828.00
2019-03-23T11:59:48.163Z,6844.00
2019-03-23T12:00:48.615Z,7120.00
2019-03-23T12:01:52.079Z,7512.00
2019-03-23T12:02:52.667Z,7856.00
2019-03-23T12:03:53.276Z,7856.00
2019-03-23T12:04:53.759Z,8068.00
2019-03-23T12:06:00.988Z,8792.00
2019-03-23T12:07:01.422Z,9264.00
2019-03-23T12:08:02.001Z,9656.00
2019-03-23T12:09:02.455Z,9552.00
2019-03-23T12:10:03.079Z,9396.00
2019-03-23T12:11:03.526Z,9304.00
2019-03-23T12:12:04.078Z,9076.00
2019-03-23T12:13:04.515Z,9156.00
2019-03-23T12:14:05.114Z,9352.00
2019-03-23T12:15:05.566Z,9728.00
2019-03-23T12:16:06.091Z,10520.00
2019-03-23T12:17:06.563Z,10948.00
2019-03-23T12:18:07.108Z,11476.00
2019-03-23T12:19:07.553Z,11832.00
2019-03-23T12:20:08.096Z,12000.00
2019-03-23T12:21:08.536Z,11772.00
2019-03-23T12:22:08.978Z,12028.00
2019-03-23T12:23:09.413Z,12568.00
2019-03-23T12:24:09.993Z,12680.00
2019-03-23T12:25:10.449Z,12344.00
2019-03-23T12:26:11.031Z,11884.00
2019-03-23T12:27:11.476Z,11516.00
2019-03-23T12:28:12.075Z,11312.00
2019-03-23T12:29:12.588Z,11416.00
2019-03-23T12:30:13.241Z,11180.00
2019-03-23T12:31:13.676Z,11020.00
2019-03-23T12:32:14.267Z,10600.00
2019-03-23T12:33:14.705Z,10432.00
2019-03-23T12:34:15.289Z,10664.00
2019-03-23T12:35:15.758Z,11120.00
2019-03-23T12:36:16.236Z,11512.00
2019-03-23T12:37:16.676Z,12188.00
2019-03-23T12:38:17.133Z,11840.00
2019-03-23T12:39:17.781Z,10988.00
2019-03-23T12:40:18.228Z,10368.00
2019-03-23T12:41:23.026Z,10036.00
2019-03-23T12:42:23.981Z,10184.00
2019-03-23T12:43:24.421Z,10340.00
2019-03-23T12:44:24.868Z,10356.00
2019-03-23T12:45:25.326Z,10152.00
2019-03-23T12:46:25.780Z,9652.00
2019-03-23T12:47:26.220Z,8796.00